Northborough, Massachusetts
Current Conditions -  °F | °C
As of 8:54 AM on Thursday 27 Nov 2014 (Local Time) from KORH Reporting Station
Overcast Overcast  
Wind Chill: 20°   Ceiling: 3700
Heat Index: 30°   Visibility: 10mi
Dew Point: 27°   Wind: 14mph
Humidity: 88%   Direction: 290°WNW
Pressure: 29.89"   Gusts: NA
Location:  42.32°N, 71.64°W
Report Text: KORH 271354Z 29012KT 10SM OVC037 M01/M03 A2989 RMK AO2 SLP136 T10111028
Loading
Personal Weather Stations






























Interactive Weather Map New forecast layout! Learn more

10-Day Weather Forecast

Advertisements
Track Severe Weather on mobile